Aérodrome :
LOGIN :

S'inscrire | Disclaimer

   EN    FR    IT 

 










Légende :    VFR   VFR Marginal   IFR   IFR Intensif   IFR Très Intensif
Visi : 
Plafond : 
>= 8 km
>= 3000ft
5 à 8 km
1000 à 3000 ft
1500m à 5 km
500 à 1000 ft
800 à 1500m
200 à 500 ft
< 800m
< 200 ft
Symboles :   Orages  Brouillard  Fortes neiges  Fortes précipitations  Vent > 20 kt
SIGMETs :   Divers  Orages  Givrage  Turbulence  Onde Orograph.  Cendres Volcan.






- Altitude de l'aérodrome : 1197 ft
- Code IATA : SPM


ETAD - Spangdahlem Ab

DERNIER METAR :
  • 081256Z AUTO 00000KT 9999 CLR 22/01 A3024 RMK AO2 VIS 4000 RWY05 SLP224 T02150012 $

METARs EXPIRÉS :
  • 081156Z AUTO 14003KT 9999 CLR 22/01 A3025 RMK AO2 SLP227 T02150012 10216 20106 57013 $
  • 081056Z AUTO 16007KT 9999 CLR 21/01 A3026 RMK AO2 SLP231 T02130005 $
  • 080956Z AUTO 10004KT 9999 CLR 20/05 A3028 RMK AO2 SLP237 T01960053 $

TAF TAF ETAD
Valide du 08 à 10h jusqu'au 09 à 16h UTC


081000Z 0810/0916 VRB04KT 9999 SKC QNH3026INS
BECMG 0814/0815 VRB03KT 9999 FEW070 QNH3023INS
BECMG 0907/0908 09006KT 9999 SKC QNH3020INS TX23/0814Z TN06/0904Z



MET'MAP, la Météo Aéronautique d'un coup d'oeil ! - Copyright ORBIFLY Décembre 2007 - Disclaimer

ORBIFLY MET'MAP TEAM :

Programmation & Développement : Alexandra Zaïnal
Sur une idée originale de : Baudouin d'Aumeries
Assistance à la programmation : Marc-Olivier Méhu
Soutien technique & logistique : Manuel Goepfert

Contact : metmap@orbifly.com




SOURCES & CREDITS :

   NOAA